Time;durP1;ratioP1;P1;durP2;ratioP2;P2;SDS_P1;SDS_P2;PMS_P1;PMS_P2;Temp;Humidity;BMP_temperature;BMP_pressure;BME280_temperature;BME280_humidity;BME280_pressure;Samples;Min_cycle;Max_cycle;Signal;HPM_P1;HPM_P2
2023/02/28 00:02:40;;;;;;;27.30;18.60;;;;;;;2.49;82.08;101667.13;180271;1267;44053;-80
2023/02/28 00:06:42;;;;;;;27.10;18.30;;;;;;;2.58;81.56;101663.59;180320;1267;43936;-79
2023/02/28 00:10:45;;;;;;;25.50;16.50;;;;;;;2.64;81.31;101659.73;180388;1267;43823;-79
2023/02/28 00:14:49;;;;;;;22.90;14.60;;;;;;;2.62;81.22;101656.11;180133;1267;59981;-79
2023/02/28 00:18:52;;;;;;;26.50;16.70;;;;;;;2.46;81.83;101651.97;180359;1266;43892;-79
2023/02/28 00:22:55;;;;;;;30.30;16.80;;;;;;;2.32;82.24;101657.74;180335;1266;47362;-80
2023/02/28 00:26:58;;;;;;;34.30;15.50;;;;;;;2.32;82.86;101653.73;180374;1267;44227;-79
2023/02/28 00:31:01;;;;;;;27.90;17.30;;;;;;;2.34;82.70;101656.65;180398;1267;43852;-79
2023/02/28 00:35:05;;;;;;;34.00;18.30;;;;;;;2.39;82.97;101654.61;180228;1267;58230;-79
2023/02/28 00:39:08;;;;;;;22.30;14.50;;;;;;;2.33;82.95;101650.90;180373;1267;44036;-79
2023/02/28 00:43:11;;;;;;;26.70;17.40;;;;;;;2.24;82.46;101656.02;180318;1267;43795;-79
2023/02/28 00:47:14;;;;;;;18.50;15.40;;;;;;;2.31;82.96;101650.08;180371;1266;43786;-79
2023/02/28 00:51:17;;;;;;;20.20;15.40;;;;;;;2.37;82.58;101650.98;180359;1266;44105;-80
2023/02/28 00:55:20;;;;;;;21.20;14.10;;;;;;;2.46;82.62;101648.65;180271;1266;58231;-79
2023/02/28 00:59:23;;;;;;;24.10;17.50;;;;;;;2.42;82.62;101643.15;180379;1267;44643;-80
2023/02/28 01:03:26;;;;;;;29.60;17.20;;;;;;;2.28;82.37;101642.27;180359;1267;43930;-80
2023/02/28 01:07:29;;;;;;;23.80;14.00;;;;;;;2.32;82.95;101643.76;180342;1267;44063;-80
2023/02/28 01:11:32;;;;;;;32.90;17.90;;;;;;;2.29;83.06;101644.70;180376;1267;43925;-80
2023/02/28 01:15:35;;;;;;;23.40;17.30;;;;;;;2.25;83.15;101641.29;180272;1267;58590;-79
2023/02/28 01:19:38;;;;;;;30.60;17.60;;;;;;;2.20;83.22;101640.38;180444;1266;44127;-79
2023/02/28 01:23:42;;;;;;;33.60;18.40;;;;;;;2.20;84.14;101643.73;180432;1267;44021;-79
2023/02/28 01:27:45;;;;;;;28.50;17.00;;;;;;;2.24;84.44;101644.83;180297;1267;44213;-79
2023/02/28 01:31:48;;;;;;;25.50;16.10;;;;;;;2.21;83.76;101644.39;180422;1267;43957;-79
2023/02/28 01:36:01;;;;;;;30.50;18.00;;;;;;;2.17;84.13;101646.58;180286;1267;57830;-79
2023/02/28 01:40:04;;;;;;;28.60;17.50;;;;;;;2.26;83.68;101646.34;180366;1266;43875;-79
2023/02/28 01:44:45;;;;;;;36.70;19.10;;;;;;;2.34;83.24;101642.63;180377;1267;43735;-79
2023/02/28 01:48:56;;;;;;;33.10;17.60;;;;;;;2.30;82.72;101643.11;180321;1266;43940;-79
2023/02/28 01:53:04;;;;;;;26.90;16.60;;;;;;;2.26;82.69;101639.70;180355;1267;44772;-78
2023/02/28 01:57:12;;;;;;;29.90;17.90;;;;;;;2.24;83.51;101644.83;180215;1266;59279;-79
2023/02/28 02:01:21;;;;;;;30.30;19.00;;;;;;;2.27;83.92;101642.48;180341;1267;44249;-80
2023/02/28 02:05:30;;;;;;;29.40;18.90;;;;;;;2.36;82.93;101642.24;180402;1267;44049;-79
2023/02/28 02:09:33;;;;;;;34.20;20.90;;;;;;;2.42;82.17;101643.15;180264;1267;43981;-79
2023/02/28 02:13:45;;;;;;;32.60;19.90;;;;;;;2.38;82.77;101638.54;180293;1266;44033;-79
2023/02/28 02:17:52;;;;;;;34.20;18.30;;;;;;;2.27;82.13;101641.42;180434;1266;58857;-79
2023/02/28 02:21:55;;;;;;;29.60;20.10;;;;;;;2.27;82.09;101643.87;180274;1267;44091;-79
2023/02/28 02:26:43;;;;;;;31.80;20.70;;;;;;;2.38;81.65;101639.39;180388;1266;44240;-79
2023/02/28 02:30:58;;;;;;;;;;;;;;;2.49;81.41;101636.48;180372;1267;44066;-79
2023/02/28 02:35:15;;;;;;;45.40;23.30;;;;;;;2.44;81.52;101635.04;180357;1267;43804;-79
2023/02/28 02:39:34;;;;;;;34.60;21.70;;;;;;;2.47;80.98;101630.23;180402;1267;59400;-80
2023/02/28 02:43:47;;;;;;;41.60;21.10;;;;;;;2.40;81.16;101630.77;180227;1267;43735;-79
2023/02/28 02:47:51;;;;;;;33.30;21.10;;;;;;;2.35;81.27;101628.79;180419;1267;44050;-80
2023/02/28 02:51:56;;;;;;;52.20;28.90;;;;;;;2.39;81.78;101626.41;180419;1267;43831;-79
2023/02/28 02:56:01;;;;;;;47.00;25.10;;;;;;;2.42;80.67;101624.05;180383;1267;43969;-80
2023/02/28 03:00:08;;;;;;;43.00;25.00;;;;;;;2.51;81.10;101622.61;180298;1266;58559;-79
2023/02/28 03:04:17;;;;;;;41.40;23.20;;;;;;;2.52;81.03;101625.39;180405;1268;44022;-79
2023/02/28 03:08:20;;;;;;;42.50;26.20;;;;;;;2.42;81.68;101628.78;180235;1267;44209;-79
2023/02/28 03:12:35;;;;;;;37.00;23.80;;;;;;;2.32;81.99;101631.66;180296;1267;43809;-79
2023/02/28 03:16:44;;;;;;;38.60;23.80;;;;;;;2.22;82.64;101630.36;180408;1266;44199;-79
2023/02/28 03:21:02;;;;;;;38.90;23.40;;;;;;;2.11;83.13;101634.62;180347;1266;58280;-80
2023/02/28 03:25:18;;;;;;;43.90;26.10;;;;;;;2.10;82.80;101634.48;180398;1266;44147;-80
2023/02/28 03:29:38;;;;;;;37.90;24.00;;;;;;;2.12;82.68;101636.54;180476;1267;43928;-80
2023/02/28 03:33:54;;;;;;;35.50;21.50;;;;;;;2.22;82.71;101639.11;180490;1266;44213;-80
2023/02/28 03:38:13;;;;;;;41.00;22.80;;;;;;;2.31;81.99;101639.73;180199;1268;44081;-80
2023/02/28 03:42:27;;;;;;;34.50;22.50;;;;;;;2.42;81.73;101635.09;180319;1267;58031;-80
2023/02/28 03:46:36;;;;;;;33.20;22.10;;;;;;;2.39;81.52;101641.13;180218;1267;44208;-80
2023/02/28 03:50:45;;;;;;;27.00;18.80;;;;;;;2.22;81.83;101646.63;180289;1267;43766;-80
2023/02/28 03:54:54;;;;;;;40.60;24.20;;;;;;;2.10;82.43;101645.52;180415;1265;43978;-80
2023/02/28 03:59:07;;;;;;;46.40;25.70;;;;;;;2.20;83.06;101648.09;180239;1267;44054;-79
2023/02/28 04:03:10;;;;;;;52.40;26.80;;;;;;;2.27;82.71;101649.13;180315;1267;59276;-80
2023/02/28 04:07:13;;;;;;;35.60;24.20;;;;;;;2.29;82.54;101651.71;180425;1266;43684;-80
2023/02/28 04:11:23;;;;;;;32.90;19.30;;;;;;;2.23;82.90;101649.56;180437;1266;44021;-80
2023/02/28 04:15:27;;;;;;;37.10;23.80;;;;;;;2.15;83.72;101645.58;180382;1267;44180;-80
2023/02/28 04:19:30;;;;;;;41.10;23.10;;;;;;;2.16;84.06;101654.48;180354;1266;44106;-79
2023/02/28 04:23:33;;;;;;;37.40;25.10;;;;;;;2.19;83.58;101657.55;180211;1267;58518;-83
2023/02/28 04:27:36;;;;;;;35.30;23.50;;;;;;;2.22;83.70;101662.91;180368;1267;43904;-83
2023/02/28 04:31:39;;;;;;;30.40;20.70;;;;;;;2.23;83.92;101667.60;180306;1266;44107;-82
2023/02/28 04:35:42;;;;;;;32.50;24.70;;;;;;;2.28;84.46;101670.46;180457;1267;44047;-83
2023/02/28 04:39:45;;;;;;;47.20;25.40;;;;;;;2.34;83.91;101673.98;180361;1267;43976;-83
2023/02/28 04:43:48;;;;;;;37.80;23.80;;;;;;;2.42;83.76;101672.21;180395;1266;58318;-83
2023/02/28 04:47:53;;;;;;;46.90;26.80;;;;;;;2.38;83.55;101677.40;180258;1267;44073;-83
2023/02/28 04:51:56;;;;;;;42.50;25.90;;;;;;;2.42;83.35;101679.22;180354;1266;44138;-84
2023/02/28 04:55:59;;;;;;;39.50;22.40;;;;;;;2.49;82.91;101675.17;180320;1267;44036;-83
2023/02/28 05:00:06;;;;;;;32.20;23.90;;;;;;;2.52;82.67;101671.77;180194;1268;231086;-83
2023/02/28 05:04:09;;;;;;;39.20;22.90;;;;;;;2.58;82.29;101674.42;180395;1267;59626;-83
2023/02/28 05:08:12;;;;;;;37.50;23.30;;;;;;;2.62;82.14;101674.33;180129;1267;43817;-84
2023/02/28 05:12:15;;;;;;;40.50;22.60;;;;;;;2.64;82.66;101679.02;180488;1265;43868;-82
2023/02/28 05:16:19;;;;;;;39.00;23.60;;;;;;;2.61;83.00;101679.60;180291;1267;44150;-83
2023/02/28 05:20:22;;;;;;;35.80;22.10;;;;;;;2.58;82.84;101681.27;180349;1267;44101;-83
2023/02/28 05:24:25;;;;;;;44.90;26.00;;;;;;;2.60;81.34;101682.27;180507;1267;59211;-83
2023/02/28 05:28:28;;;;;;;27.60;21.60;;;;;;;2.63;80.77;101680.43;180489;1267;44055;-83
2023/02/28 05:32:31;;;;;;;29.90;18.90;;;;;;;2.70;80.37;101679.03;180389;1266;43767;-83
2023/02/28 05:36:36;;;;;;;33.20;23.10;;;;;;;2.71;78.98;101682.15;180425;1267;44078;-83
2023/02/28 05:40:40;;;;;;;34.00;22.00;;;;;;;2.69;78.42;101680.80;180487;1267;44754;-83
2023/02/28 05:44:43;;;;;;;39.70;25.40;;;;;;;2.62;78.35;101689.73;180424;1268;57942;-83
2023/02/28 05:48:47;;;;;;;37.30;24.00;;;;;;;2.55;78.78;101688.51;180459;1267;44070;-84
2023/02/28 05:52:51;;;;;;;43.20;24.50;;;;;;;2.51;78.07;101696.14;180615;1266;43756;-84
2023/02/28 05:56:54;;;;;;;42.60;26.10;;;;;;;2.47;78.33;101700.80;180615;1269;43783;-83
2023/02/28 06:00:58;;;;;;;36.70;24.50;;;;;;;2.44;78.78;101702.10;180218;1268;43969;-84
2023/02/28 06:05:01;;;;;;;41.20;24.50;;;;;;;2.42;78.92;101705.48;180507;1268;57933;-83
2023/02/28 06:09:05;;;;;;;39.70;26.60;;;;;;;2.39;79.04;101707.65;180399;1267;43776;-84
2023/02/28 06:13:08;;;;;;;36.40;23.20;;;;;;;2.34;79.14;101712.52;180244;1267;43867;-84
2023/02/28 06:17:11;;;;;;;44.60;24.50;;;;;;;2.29;79.83;101721.37;180457;1267;44054;-83
2023/02/28 06:21:15;;;;;;;37.90;22.20;;;;;;;2.33;79.50;101727.23;180421;1266;44089;-84
2023/02/28 06:25:19;;;;;;;44.50;25.70;;;;;;;2.36;78.95;101726.82;180510;1266;58401;-84
2023/02/28 06:29:21;;;;;;;42.30;26.40;;;;;;;2.42;79.58;101731.75;180894;1267;43799;-84
2023/02/28 06:33:25;;;;;;;37.90;21.00;;;;;;;2.49;78.65;101732.64;180470;1267;44867;-83
2023/02/28 06:37:27;;;;;;;39.60;21.60;;;;;;;2.52;77.60;101737.63;180534;1267;43890;-84
2023/02/28 06:41:31;;;;;;;34.60;20.80;;;;;;;2.55;77.23;101741.76;180561;1268;43791;-83
2023/02/28 06:46:01;;;;;;;37.80;20.80;;;;;;;2.62;77.01;101741.93;180404;1267;59631;-83
2023/02/28 06:50:05;;;;;;;36.20;21.60;;;;;;;2.74;76.46;101747.60;180402;1267;44206;-83
2023/02/28 06:54:09;;;;;;;35.70;21.10;;;;;;;2.80;75.24;101752.00;180557;1267;44208;-83
2023/02/28 06:58:15;;;;;;;34.70;20.30;;;;;;;2.81;73.14;101751.64;180470;1266;43922;-83
2023/02/28 07:02:18;;;;;;;32.50;21.20;;;;;;;2.84;74.11;101749.96;180573;1267;43819;-83
2023/02/28 07:06:22;;;;;;;37.50;21.50;;;;;;;2.88;74.10;101753.57;180549;1267;57917;-83
2023/02/28 07:10:25;;;;;;;29.70;19.60;;;;;;;2.91;73.53;101755.20;180553;1266;43830;-83
2023/02/28 07:14:28;;;;;;;36.20;20.80;;;;;;;3.00;73.33;101759.38;180393;1268;44164;-83
2023/02/28 07:18:31;;;;;;;29.80;18.80;;;;;;;3.06;72.76;101760.27;180491;1267;44169;-83
2023/02/28 07:22:34;;;;;;;31.20;21.30;;;;;;;3.14;73.15;101763.55;180452;1267;43971;-83
2023/02/28 07:26:37;;;;;;;33.70;19.90;;;;;;;3.21;73.67;101766.69;180503;1267;59642;-83
2023/02/28 07:30:40;;;;;;;37.20;22.70;;;;;;;3.26;73.67;101768.49;180327;1267;43941;-83
2023/02/28 07:34:44;;;;;;;41.30;23.50;;;;;;;3.30;73.52;101770.14;180500;1267;44138;-83
2023/02/28 07:38:49;;;;;;;44.20;25.90;;;;;;;3.39;74.07;101771.45;180544;1266;44758;-83
2023/02/28 07:42:53;;;;;;;43.90;25.40;;;;;;;3.48;72.92;101770.52;180544;1267;43704;-83
2023/02/28 07:46:55;;;;;;;36.10;25.10;;;;;;;3.59;72.48;101773.73;180386;1267;59506;-83
2023/02/28 07:51:00;;;;;;;43.80;26.30;;;;;;;3.77;72.11;101776.71;180557;1266;44076;-83
2023/02/28 07:55:04;;;;;;;39.40;24.00;;;;;;;3.98;71.86;101776.11;180475;1267;43792;-83
2023/02/28 07:59:07;;;;;;;32.70;22.40;;;;;;;4.11;69.83;101775.70;180415;1267;44032;-83
2023/02/28 08:03:13;;;;;;;32.00;23.00;;;;;;;4.23;69.08;101770.77;180503;1267;44018;-83
2023/02/28 08:07:17;;;;;;;44.10;27.60;;;;;;;4.27;68.77;101776.08;180406;1267;59262;-83
2023/02/28 08:11:20;;;;;;;38.70;24.90;;;;;;;4.36;68.79;101776.34;180491;1267;43763;-83
2023/02/28 08:15:23;;;;;;;34.40;20.40;;;;;;;4.49;68.35;101775.94;180384;1267;44148;-83
2023/02/28 09:09:01;;;;;;;22.40;14.70;;;;;;;5.05;57.01;101773.36;180789;1270;43622;-72
2023/02/28 09:13:29;;;;;;;15.20;11.40;;;;;;;5.10;55.90;101775.30;180635;1270;43091;-73
2023/02/28 09:18:00;;;;;;;12.70;7.50;;;;;;;5.09;54.60;101774.27;180679;1270;43040;-72
2023/02/28 09:22:03;;;;;;;8.40;6.80;;;;;;;5.09;53.71;101771.84;180608;1269;58046;-72
2023/02/28 09:26:16;;;;;;;13.10;9.80;;;;;;;5.07;54.11;101770.66;180821;1270;43023;-72
2023/02/28 09:30:19;;;;;;;11.90;8.90;;;;;;;5.12;54.69;101767.33;180620;1270;43820;-72
2023/02/28 09:34:22;;;;;;;17.80;10.80;;;;;;;5.27;55.12;101765.39;180783;1270;43212;-75
2023/02/28 09:38:52;;;;;;;22.40;13.10;;;;;;;5.18;55.02;101762.55;180842;1270;42987;-72
2023/02/28 09:42:59;;;;;;;13.50;8.10;;;;;;;4.90;55.09;101763.34;180818;1269;59352;-72
2023/02/28 09:47:36;;;;;;;12.20;9.10;;;;;;;4.72;54.78;101762.73;180800;1270;43698;-74
2023/02/28 09:51:43;;;;;;;14.90;9.90;;;;;;;4.72;55.49;101757.44;180664;1269;42997;-75
2023/02/28 09:56:15;;;;;;;12.80;9.90;;;;;;;4.83;56.26;101760.05;180809;1270;43058;-72
2023/02/28 10:00:33;;;;;;;15.80;11.10;;;;;;;4.81;55.13;101766.29;180763;1270;43007;-72
2023/02/28 10:04:57;;;;;;;14.10;8.30;;;;;;;4.80;54.64;101765.08;180469;1270;58266;-75
2023/02/28 10:09:04;;;;;;;15.30;10.70;;;;;;;4.90;55.30;101769.83;180692;1270;43777;-74
2023/02/28 10:18:10;;;;;;;15.50;10.20;;;;;;;4.92;55.80;101764.14;180667;1270;43178;-73
2023/02/28 10:23:12;;;;;;;13.10;10.00;;;;;;;4.91;55.14;101760.46;180738;1270;43116;-72
2023/02/28 10:27:39;;;;;;;11.60;9.10;;;;;;;4.85;54.63;101754.52;178920;1279;57138;-72
2023/02/28 10:32:10;;;;;;;12.50;9.40;;;;;;;4.75;55.67;101750.67;178960;1279;44369;-75
2023/02/28 10:36:16;;;;;;;12.30;8.10;;;;;;;4.77;55.74;101746.70;178806;1280;43259;-72
2023/02/28 10:40:22;;;;;;;13.00;9.50;;;;;;;5.09;55.31;101744.91;178793;1279;43437;-72
2023/02/28 10:44:25;;;;;;;16.10;8.80;;;;;;;5.40;54.09;101739.94;179244;1276;43187;-73
2023/02/28 10:48:34;;;;;;;10.90;9.00;;;;;;;5.53;53.52;101733.31;179376;1276;58333;-75
2023/02/28 10:52:39;;;;;;;18.00;12.60;;;;;;;5.47;53.91;101731.77;179353;1276;43728;-75
2023/02/28 10:56:42;;;;;;;22.30;12.40;;;;;;;5.47;54.35;101730.17;179801;1270;43106;-73
2023/02/28 11:00:46;;;;;;;32.30;18.90;;;;;;;5.52;54.14;101725.45;180679;1269;44073;-75
2023/02/28 11:04:49;;;;;;;13.10;11.10;;;;;;;5.54;54.54;101727.11;180852;1270;43006;-76
2023/02/28 11:09:29;;;;;;;19.40;14.60;;;;;;;5.69;53.27;101724.77;180815;1270;58095;-73
2023/02/28 11:13:35;;;;;;;17.20;10.90;;;;;;;5.72;54.19;101722.20;180851;1270;43086;-72
2023/02/28 11:17:38;;;;;;;15.10;9.70;;;;;;;5.69;53.67;101727.27;180807;1270;42997;-72
2023/02/28 11:31:01;;;;;;;16.00;10.40;;;;;;;6.05;52.92;101723.94;180488;1273;58080;-72
2023/02/28 11:35:11;;;;;;;33.00;18.70;;;;;;;6.15;53.18;101717.78;180816;1270;43801;-72
2023/02/28 11:39:16;;;;;;;12.90;9.80;;;;;;;6.05;53.47;101718.33;180804;1270;43725;-72
2023/02/28 11:43:27;;;;;;;15.80;9.90;;;;;;;6.04;53.14;101718.02;180713;1270;43470;-76
2023/02/28 11:47:36;;;;;;;23.60;15.50;;;;;;;5.93;54.52;101715.25;180546;1270;43159;-74
2023/02/28 11:51:58;;;;;;;20.10;11.00;;;;;;;5.95;54.16;101715.34;180789;1270;58781;-72
2023/02/28 11:56:35;;;;;;;17.50;9.60;;;;;;;6.04;53.62;101710.42;180534;1270;43130;-73
2023/02/28 12:00:44;;;;;;;12.40;8.70;;;;;;;6.01;52.98;101705.98;180547;1269;44105;-73
2023/02/28 12:04:47;;;;;;;11.80;9.50;;;;;;;6.21;52.76;101699.90;180711;1269;43046;-74
2023/02/28 12:09:13;;;;;;;8.60;7.70;;;;;;;6.38;52.73;101693.39;180829;1261;44068;-75
2023/02/28 12:13:30;;;;;;;;;;;;;;;6.36;52.42;101688.70;181081;1266;59518;-74
2023/02/28 12:17:40;;;;;;;9.10;6.60;;;;;;;6.51;52.65;101680.70;181009;1267;43474;-75
2023/02/28 12:22:22;;;;;;;15.00;7.80;;;;;;;6.66;51.34;101677.79;181032;1267;43028;-76
2023/02/28 12:26:53;;;;;;;10.50;7.60;;;;;;;6.82;51.46;101674.80;180992;1269;43721;-75
2023/02/28 12:31:23;;;;;;;10.10;8.80;;;;;;;6.88;51.03;101673.48;181057;1267;43039;-73
2023/02/28 12:35:34;;;;;;;9.40;7.60;;;;;;;6.71;51.82;101662.39;181034;1266;57909;-75
2023/02/28 12:39:46;;;;;;;9.90;6.60;;;;;;;6.52;53.70;101660.04;181008;1267;42999;-72
2023/02/28 12:44:01;;;;;;;8.00;7.20;;;;;;;6.59;53.18;101657.64;180980;1267;43080;-75
2023/02/28 12:48:08;;;;;;;10.30;6.30;;;;;;;6.49;51.88;101655.57;180997;1267;43354;-75
2023/02/28 12:52:13;;;;;;;;;;;;;;;6.58;53.17;101648.66;181020;1267;43360;-76
2023/02/28 12:56:56;;;;;;;6.80;5.60;;;;;;;6.73;51.91;101648.73;181004;1267;57696;-74
2023/02/28 13:01:11;;;;;;;10.20;6.40;;;;;;;6.79;52.03;101647.25;181062;1267;43733;-73
2023/02/28 13:05:39;;;;;;;7.50;4.80;;;;;;;6.70;52.76;101638.27;181019;1267;43363;-74
2023/02/28 13:09:54;;;;;;;8.40;5.90;;;;;;;6.51;53.25;101634.91;181052;1269;43377;-74
2023/02/28 13:13:59;;;;;;;6.60;5.10;;;;;;;6.48;52.99;101639.21;180999;1267;43825;-73
2023/02/28 13:18:02;;;;;;;10.00;7.50;;;;;;;6.37;53.61;101641.08;181076;1267;58363;-74
2023/02/28 13:22:16;;;;;;;12.20;6.60;;;;;;;6.29;53.33;101640.91;180979;1267;43862;-72
2023/02/28 13:31:18;;;;;;;10.50;7.70;;;;;;;6.19;53.58;101637.27;180606;1263;78965;-87
2023/02/28 13:35:43;;;;;;;11.40;7.70;;;;;;;6.20;53.92;101638.67;180810;1265;43839;-87
2023/02/28 13:39:53;;;;;;;9.80;6.80;;;;;;;6.13;55.79;101637.88;180631;1264;59248;-88
2023/02/28 13:44:01;;;;;;;13.20;8.00;;;;;;;6.06;55.15;101639.89;180662;1265;43789;-87
2023/02/28 13:48:19;;;;;;;13.70;7.80;;;;;;;6.06;54.52;101634.29;180791;1264;44043;-87
2023/02/28 13:52:24;;;;;;;12.10;7.90;;;;;;;6.09;54.40;101630.64;180584;1264;44226;-87
2023/02/28 13:56:41;;;;;;;13.50;7.00;;;;;;;6.16;53.75;101629.66;180534;1265;44169;-87
2023/02/28 14:01:06;;;;;;;13.10;8.20;;;;;;;6.31;54.11;101624.81;180661;1265;58525;-88
2023/02/28 14:05:17;;;;;;;8.00;6.60;;;;;;;6.48;53.06;101617.19;180634;1264;44058;-86
2023/02/28 14:09:54;;;;;;;15.00;7.70;;;;;;;6.62;53.30;101615.02;180782;1263;43939;-86
2023/02/28 14:14:05;;;;;;;8.20;6.50;;;;;;;6.70;52.80;101609.38;180820;1264;44254;-87
2023/02/28 14:18:24;;;;;;;10.10;6.80;;;;;;;6.70;52.09;101597.91;180696;1263;43937;-89
2023/02/28 14:22:52;;;;;;;15.00;7.70;;;;;;;6.69;52.23;101597.44;180492;1265;60734;-87
2023/02/28 14:27:18;;;;;;;10.70;8.20;;;;;;;6.69;51.65;101595.48;180672;1265;43926;-88
2023/02/28 14:31:36;;;;;;;22.20;12.90;;;;;;;6.74;51.69;101594.76;180652;1264;44636;-87
2023/02/28 14:35:54;;;;;;;9.00;6.70;;;;;;;6.73;51.87;101595.85;180581;1264;44179;-86
2023/02/28 14:39:58;;;;;;;19.80;12.20;;;;;;;6.80;52.31;101594.68;180657;1264;43865;-85
2023/02/28 14:44:12;;;;;;;15.90;12.00;;;;;;;6.83;52.84;101589.20;180723;1264;58414;-84
2023/02/28 14:48:16;;;;;;;11.60;7.70;;;;;;;6.77;51.87;101586.68;180946;1264;43076;-83
2023/02/28 14:52:25;;;;;;;10.70;7.90;;;;;;;6.72;51.87;101584.95;180570;1265;44313;-88
2023/02/28 14:56:35;;;;;;;14.60;10.00;;;;;;;6.73;52.24;101587.92;180571;1264;44200;-86
2023/02/28 15:00:48;;;;;;;15.30;8.50;;;;;;;6.71;52.89;101592.42;180427;1264;43774;-86
2023/02/28 15:04:58;;;;;;;11.90;9.20;;;;;;;6.72;52.48;101593.98;180683;1265;57151;-88
2023/02/28 15:09:18;;;;;;;15.80;10.70;;;;;;;6.59;52.73;101593.12;180657;1264;43999;-87
2023/02/28 15:13:23;;;;;;;12.80;9.10;;;;;;;6.47;52.35;101596.63;180495;1265;43918;-87
2023/02/28 15:26:53;;;;;;;15.80;11.00;;;;;;;6.03;52.90;101597.77;179711;1270;59764;-86
2023/02/28 15:31:00;;;;;;;16.60;10.70;;;;;;;6.01;55.31;101596.45;179628;1270;43879;-86
2023/02/28 15:35:28;;;;;;;15.70;9.50;;;;;;;5.95;54.40;101595.79;179708;1270;44252;-86
2023/02/28 15:39:41;;;;;;;19.40;11.10;;;;;;;5.90;55.85;101590.70;179672;1270;44035;-88
2023/02/28 15:43:44;;;;;;;22.50;14.50;;;;;;;5.77;54.61;101590.52;179930;1270;44266;-89
2023/02/28 15:47:48;;;;;;;42.70;24.30;;;;;;;5.63;55.27;101590.73;179834;1270;60079;-89
2023/02/28 15:51:55;;;;;;;28.40;17.30;;;;;;;5.50;55.98;101591.42;179525;1270;43940;-89
2023/02/28 15:56:06;;;;;;;20.20;14.00;;;;;;;5.36;57.03;101590.76;179718;1270;44417;-88
2023/02/28 16:00:15;;;;;;;27.10;13.80;;;;;;;5.20;57.27;101590.30;179974;1270;43838;-90
2023/02/28 16:04:20;;;;;;;26.10;13.80;;;;;;;5.06;60.30;101595.55;179588;1270;43794;-87
2023/02/28 16:08:23;;;;;;;17.20;13.60;;;;;;;4.92;62.41;101598.71;179179;1270;59720;-86
2023/02/28 16:12:29;;;;;;;23.10;15.50;;;;;;;4.75;63.80;101599.69;179878;1270;44233;-89
2023/02/28 16:16:33;;;;;;;20.60;14.20;;;;;;;4.55;64.68;101604.42;179711;1270;43780;-89
2023/02/28 16:20:36;;;;;;;29.60;16.50;;;;;;;4.34;64.40;101606.90;179572;1272;44178;-87
2023/02/28 16:24:41;;;;;;;22.60;16.20;;;;;;;4.17;65.40;101610.64;179241;1270;43943;-89
2023/02/28 16:28:45;;;;;;;20.10;15.50;;;;;;;4.00;66.15;101610.86;179199;1270;59372;-89
2023/02/28 16:32:49;;;;;;;24.90;15.00;;;;;;;3.81;67.26;101612.50;179376;1270;43894;-87
2023/02/28 16:36:52;;;;;;;24.90;16.70;;;;;;;3.63;67.76;101614.86;179431;1270;43972;-89
2023/02/28 16:40:59;;;;;;;22.30;15.60;;;;;;;3.46;67.63;101616.41;179888;1270;45667;-89
2023/02/28 16:45:03;;;;;;;21.00;14.60;;;;;;;3.36;67.42;101617.77;179581;1270;43869;-85
2023/02/28 16:49:12;;;;;;;21.00;14.80;;;;;;;3.29;67.17;101617.12;179403;1272;57233;-87
2023/02/28 16:53:15;;;;;;;31.30;19.60;;;;;;;3.20;67.47;101617.17;179535;1270;43891;-89
2023/02/28 16:57:23;;;;;;;33.30;22.90;;;;;;;3.17;67.92;101618.67;179208;1270;44199;-87
2023/02/28 17:01:27;;;;;;;36.40;23.40;;;;;;;3.13;67.80;101623.16;178860;1270;43835;-87
2023/02/28 17:05:39;;;;;;;37.40;20.80;;;;;;;3.09;67.65;101622.05;179372;1270;44997;-86
2023/02/28 17:09:43;;;;;;;31.90;21.50;;;;;;;3.07;67.31;101621.08;179885;1270;58376;-87
2023/02/28 17:13:48;;;;;;;53.30;33.00;;;;;;;3.05;67.34;101625.15;179638;1270;43981;-88
2023/02/28 17:17:53;;;;;;;52.70;33.40;;;;;;;3.02;66.85;101625.76;179421;1270;44186;-89
2023/02/28 17:21:56;;;;;;;74.00;44.00;;;;;;;2.98;66.71;101622.71;179331;1270;48239;-87
2023/02/28 17:26:01;;;;;;;74.20;38.90;;;;;;;2.96;66.85;101623.30;179682;1270;43809;-86
2023/02/28 17:30:14;;;;;;;50.00;29.80;;;;;;;2.90;66.89;101624.52;179485;1270;60004;-86
2023/02/28 17:34:21;;;;;;;57.80;39.70;;;;;;;2.82;67.59;101621.78;179665;1270;43855;-87
2023/02/28 17:38:24;;;;;;;62.90;39.70;;;;;;;2.74;68.22;101626.20;179198;1270;44371;-86
2023/02/28 17:42:28;;;;;;;63.80;38.90;;;;;;;2.66;68.61;101627.11;179598;1270;44014;-87
2023/02/28 17:46:32;;;;;;;68.50;44.60;;;;;;;2.60;69.26;101627.27;179463;1270;43941;-87
2023/02/28 17:50:35;;;;;;;80.90;50.90;;;;;;;2.53;69.64;101627.81;179379;1270;58365;-87
2023/02/28 17:54:39;;;;;;;60.80;36.40;;;;;;;2.44;69.70;101636.45;179460;1270;43754;-87
2023/02/28 17:58:42;;;;;;;57.40;31.30;;;;;;;2.35;69.99;101636.67;179747;1270;43926;-88
2023/02/28 18:02:45;;;;;;;37.00;21.70;;;;;;;2.25;70.51;101642.70;179437;1270;43921;-87
2023/02/28 18:06:51;;;;;;;27.60;18.90;;;;;;;2.19;70.80;101643.89;179678;1270;43946;-86
2023/02/28 18:10:54;;;;;;;29.60;20.10;;;;;;;2.18;70.61;101649.02;179752;1269;58280;-86
2023/02/28 18:14:58;;;;;;;34.40;23.00;;;;;;;2.11;70.66;101650.71;179408;1270;44029;-85
2023/02/28 18:19:02;;;;;;;45.90;26.60;;;;;;;2.05;70.75;101650.53;179214;1270;44014;-85
2023/02/28 18:23:06;;;;;;;117.10;58.00;;;;;;;2.00;70.99;101655.38;179402;1270;44130;-86
2023/02/28 18:27:11;;;;;;;46.10;26.30;;;;;;;1.95;71.48;101647.97;179600;1270;45334;-85
2023/02/28 18:31:17;;;;;;;89.20;45.90;;;;;;;1.88;71.75;101644.65;179543;1270;60750;-86
2023/02/28 18:35:33;;;;;;;;;;;;;;;1.82;72.03;101641.61;179725;1270;44051;-87
2023/02/28 18:39:36;;;;;;;51.00;29.90;;;;;;;1.79;72.40;101641.53;179475;1270;43914;-87
2023/02/28 18:43:39;;;;;;;43.80;23.10;;;;;;;1.75;72.96;101645.80;179366;1270;43897;-87
2023/02/28 18:47:43;;;;;;;34.20;23.10;;;;;;;1.76;72.86;101648.94;179301;1272;43863;-85
2023/02/28 18:51:47;;;;;;;26.60;19.40;;;;;;;1.74;73.03;101652.30;179286;1270;59500;-85
2023/02/28 18:55:50;;;;;;;30.40;19.90;;;;;;;1.72;73.20;101649.91;179218;1270;44120;-86
2023/02/28 18:59:53;;;;;;;29.10;21.60;;;;;;;1.70;73.12;101649.08;179281;1270;44031;-85
2023/02/28 19:03:59;;;;;;;24.90;17.90;;;;;;;1.69;73.24;101654.51;179191;1270;44432;-85
2023/02/28 19:08:03;;;;;;;28.20;19.40;;;;;;;1.64;73.41;101656.19;179464;1270;43938;-85
2023/02/28 19:12:07;;;;;;;34.70;25.70;;;;;;;1.61;73.75;101655.39;179300;1270;57986;-85
2023/02/28 19:16:12;;;;;;;46.50;29.80;;;;;;;1.60;73.79;101649.83;179415;1270;43756;-85
2023/02/28 19:20:16;;;;;;;31.40;22.20;;;;;;;1.61;73.25;101647.19;179246;1270;43965;-85
2023/02/28 19:24:19;;;;;;;33.70;21.80;;;;;;;1.62;73.10;101648.40;179582;1270;43896;-85
2023/02/28 19:28:23;;;;;;;33.10;21.40;;;;;;;1.64;73.17;101651.67;179604;1270;44014;-85
2023/02/28 19:32:29;;;;;;;39.50;24.60;;;;;;;1.60;73.36;101653.67;179375;1270;59597;-85
2023/02/28 19:36:33;;;;;;;40.20;26.60;;;;;;;1.59;73.54;101654.40;179351;1270;43837;-84
2023/02/28 19:40:37;;;;;;;37.50;24.90;;;;;;;1.59;73.57;101656.32;179449;1270;44241;-84
2023/02/28 19:44:42;;;;;;;41.10;27.10;;;;;;;1.60;73.40;101657.55;179397;1270;44016;-86
2023/02/28 19:48:47;;;;;;;37.50;27.40;;;;;;;1.58;73.12;101658.96;179546;1270;43901;-88
2023/02/28 19:52:51;;;;;;;42.30;26.70;;;;;;;1.58;73.03;101664.73;179491;1270;59685;-88
2023/02/28 19:56:57;;;;;;;47.90;29.50;;;;;;;1.61;72.78;101667.13;179586;1270;43808;-89
2023/02/28 20:01:17;;;;;;;43.80;26.30;;;;;;;1.55;72.56;101664.27;179515;1270;44165;-88
2023/02/28 20:05:21;;;;;;;40.60;27.90;;;;;;;1.49;72.49;101666.86;179280;1270;44170;-89
2023/02/28 20:09:28;;;;;;;59.40;29.60;;;;;;;1.42;72.53;101668.38;179709;1270;43795;-87
2023/02/28 20:13:33;;;;;;;49.60;28.90;;;;;;;1.31;73.09;101672.64;179513;1270;59609;-86